Clearfield, Kentucky
Current Conditions -  °F | °C
As of 12:50 PM on Monday 24 Nov 2014 (Local Time) from KSYM Reporting Station
Broken Clouds Broken Clouds  
Wind Chill: 63°   Ceiling: 8000
Heat Index: 63°   Visibility: 10mi
Dew Point: 48°   Wind: 16mph
Humidity: 59%   Direction: 250°WSW
Pressure: 29.61"   Gusts: 31mph
Location:  38.16°N, 83.43°W
Report Text: KSYM 241750Z AUTO 25014G27KT 210V270 10SM FEW031 SCT055 BKN080 17/09 A2961 RMK AO2
Loading
Personal Weather Stations






























Interactive Weather Map New forecast layout! Learn more

10-Day Weather Forecast

Advertisements
Track Severe Weather on mobile